map of BUJ home
BUJ - Airport
Location
City:  Bou Saada, Msila, Algeria
Near (Alt.):Boussaada
Name:Ain Eddis
ICAO:DAAD
IATA:BUJ

Details
Type:Airport (Aerodrome, Airfield)
Latitude:3519'53"N (35.331389)
Longitude:412'16"E (4.204444)
Elevation:1506 ft (459 m)
Variation:1.33E (WMM2015 magnetic declination)
0.10 annual change
Runways:1
Longest:7218 × 98 ft (2200 × 30 m)

Time
Time Zone:UTC+1
Local Time:

Weather
METAR:DAAD 181800Z 32006KT 8000 FEW026 SCT030 10/02 Q1017

Related Locations
Nearby:
Farthest:GIS: 12025 mi / 19352 km
Gisborne, GIS, NZ

Find:

   beyond  
but within

Other Information
Maps:
NOTAMs:
Links:
Sources:

  
  • flag of Algeria
  

Sectional Chart

Flight Planning
at skyvector.com

Satellite Image

Google Maps Satellite view

 

Copyright © 2004-2019 Karl L. Swartz. All rights reserved.
The Great Circle Mapper name and logo are trademarks of the Great Circle Mapper.
All other trademarks mentioned herein belong to their respective owners.
Please see credits for attibutions and further copyright information.

  Follow gcmap on Facebook Follow gcmap on Twitter Follow gcmap on Google+ GCmap on LinkedIn

hCard Microformat

Geo Microformat